createdAt,value
2018-11-29T00:02:07.298Z,8.27
2018-11-29T00:04:35.589Z,7.37
2018-11-29T00:07:04.170Z,8.03
2018-11-29T00:09:38.598Z,9.37
2018-11-29T00:12:07.225Z,5.70
2018-11-29T00:14:35.985Z,6.57
2018-11-29T00:17:04.645Z,9.33
2018-11-29T00:19:33.360Z,9.57
2018-11-29T00:22:01.723Z,6.07
2018-11-29T00:24:29.843Z,10.03
2018-11-29T00:26:59.551Z,8.77
2018-11-29T00:29:28.243Z,5.83
2018-11-29T00:31:56.718Z,7.23
2018-11-29T00:34:25.202Z,8.43
2018-11-29T00:36:53.333Z,6.40
2018-11-29T00:39:21.452Z,10.10
2018-11-29T00:41:49.515Z,9.67
2018-11-29T00:44:17.784Z,11.20
2018-11-29T00:46:46.355Z,5.93
2018-11-29T00:49:14.545Z,6.87
2018-11-29T00:51:42.710Z,4.73
2018-11-29T00:54:10.799Z,6.70
2018-11-29T00:56:38.966Z,6.83
2018-11-29T00:59:07.092Z,7.23
2018-11-29T01:01:35.283Z,8.80
2018-11-29T01:04:04.265Z,4.80
2018-11-29T01:06:31.752Z,5.37
2018-11-29T01:08:59.832Z,7.77
2018-11-29T01:11:27.987Z,13.03
2018-11-29T01:13:56.026Z,11.87
2018-11-29T01:16:24.502Z,9.63
2018-11-29T01:18:52.618Z,9.70
2018-11-29T01:21:20.775Z,11.93
2018-11-29T01:23:49.325Z,13.37
2018-11-29T01:26:17.837Z,16.50
2018-11-29T01:28:46.315Z,13.20
2018-11-29T01:31:14.830Z,14.40
2018-11-29T01:33:43.360Z,10.17
2018-11-29T01:36:11.745Z,14.43
2018-11-29T01:38:40.008Z,14.43
2018-11-29T01:41:08.659Z,10.90
2018-11-29T01:43:36.821Z,12.50
2018-11-29T01:46:05.323Z,18.63
2018-11-29T01:48:33.880Z,17.43
2018-11-29T01:51:02.220Z,15.77
2018-11-29T01:53:30.476Z,13.63
2018-11-29T01:55:58.854Z,11.97
2018-11-29T01:58:27.163Z,10.80
2018-11-29T02:00:55.833Z,11.83
2018-11-29T02:03:24.239Z,10.70
2018-11-29T02:05:52.562Z,12.17
2018-11-29T02:08:21.002Z,10.90
2018-11-29T02:10:50.403Z,9.23
2018-11-29T02:13:19.267Z,10.00
2018-11-29T02:15:47.469Z,8.63
2018-11-29T02:18:16.711Z,11.40
2018-11-29T02:20:44.851Z,14.03
2018-11-29T02:23:13.626Z,10.97
2018-11-29T02:25:42.054Z,10.37
2018-11-29T02:28:10.386Z,14.00
2018-11-29T02:30:38.627Z,5.17
2018-11-29T02:33:06.757Z,14.50
2018-11-29T02:35:35.103Z,18.33
2018-11-29T02:38:03.749Z,13.20
2018-11-29T02:40:32.030Z,9.67
2018-11-29T02:43:00.251Z,10.00
2018-11-29T02:45:28.548Z,9.97
2018-11-29T02:47:56.753Z,17.93
2018-11-29T02:50:25.230Z,10.13
2018-11-29T02:52:53.318Z,9.90
2018-11-29T02:55:21.454Z,11.10
2018-11-29T02:57:50.313Z,10.20
2018-11-29T03:00:19.004Z,10.93
2018-11-29T03:02:47.833Z,8.37
2018-11-29T03:05:16.301Z,11.13
2018-11-29T03:07:44.435Z,11.23
2018-11-29T03:10:13.800Z,12.33
2018-11-29T03:12:42.213Z,11.10
2018-11-29T03:15:11.056Z,7.73
2018-11-29T03:17:40.317Z,8.10
2018-11-29T03:20:08.985Z,8.67
2018-11-29T03:22:37.095Z,11.47
2018-11-29T03:25:07.075Z,12.90
2018-11-29T03:27:35.318Z,8.40
2018-11-29T03:30:03.484Z,13.83
2018-11-29T03:32:31.565Z,9.13
2018-11-29T03:34:59.971Z,9.67
2018-11-29T03:37:28.208Z,7.47
2018-11-29T03:39:56.311Z,12.87
2018-11-29T03:42:25.657Z,6.33
2018-11-29T03:44:53.748Z,7.37
2018-11-29T03:47:21.804Z,4.40
2018-11-29T03:49:50.037Z,7.23
2018-11-29T03:52:18.348Z,4.83
2018-11-29T03:54:46.687Z,8.73
2018-11-29T03:57:14.827Z,7.63
2018-11-29T03:59:42.891Z,6.17
2018-11-29T04:02:10.976Z,8.63
2018-11-29T04:04:39.093Z,7.30
2018-11-29T04:07:07.214Z,6.27
2018-11-29T04:09:35.282Z,5.97
2018-11-29T04:12:03.671Z,5.70
2018-11-29T04:14:31.817Z,4.77
2018-11-29T04:16:59.947Z,3.80
2018-11-29T04:19:28.207Z,4.50
2018-11-29T04:21:56.287Z,6.00
2018-11-29T04:24:24.413Z,2.93
2018-11-29T04:26:52.507Z,4.77
2018-11-29T04:29:20.605Z,3.90
2018-11-29T04:31:48.788Z,5.23
2018-11-29T04:34:16.851Z,5.97
2018-11-29T04:36:44.968Z,7.20
2018-11-29T04:39:13.154Z,6.20
2018-11-29T04:41:41.285Z,5.07
2018-11-29T04:44:09.382Z,4.37
2018-11-29T04:46:42.048Z,5.20
2018-11-29T04:49:10.194Z,5.63
2018-11-29T04:51:38.321Z,3.43
2018-11-29T04:54:06.891Z,5.27
2018-11-29T04:56:35.020Z,5.13
2018-11-29T04:59:03.134Z,5.13
2018-11-29T05:01:31.255Z,4.50
2018-11-29T05:03:59.354Z,5.53
2018-11-29T05:06:27.459Z,3.27
2018-11-29T05:08:55.542Z,3.77
2018-11-29T05:11:23.635Z,2.30
2018-11-29T05:13:51.729Z,2.90
2018-11-29T05:16:19.875Z,2.43
2018-11-29T05:18:47.990Z,4.07
2018-11-29T05:21:16.164Z,4.00
2018-11-29T05:23:44.511Z,6.33
2018-11-29T05:26:12.909Z,2.73
2018-11-29T05:28:41.382Z,4.83
2018-11-29T05:31:09.702Z,3.23
2018-11-29T05:33:37.940Z,2.77
2018-11-29T05:36:06.296Z,2.80
2018-11-29T05:38:34.525Z,3.03
2018-11-29T05:41:03.239Z,3.57
2018-11-29T05:43:31.730Z,5.30
2018-11-29T05:46:00.041Z,4.20
2018-11-29T05:48:28.474Z,6.30
2018-11-29T05:50:57.037Z,3.83
2018-11-29T05:53:25.443Z,3.67
2018-11-29T05:55:53.599Z,2.07
2018-11-29T05:58:22.033Z,3.60
2018-11-29T06:00:50.389Z,2.23
2018-11-29T06:03:19.230Z,2.60
2018-11-29T06:05:52.708Z,3.90
2018-11-29T06:08:21.034Z,7.23
2018-11-29T06:10:49.658Z,2.77
2018-11-29T06:13:18.198Z,2.03
2018-11-29T06:15:46.715Z,2.70
2018-11-29T06:18:14.960Z,2.97
2018-11-29T06:20:43.768Z,5.37
2018-11-29T06:23:11.939Z,2.73
2018-11-29T06:25:42.485Z,5.70
2018-11-29T06:28:10.617Z,2.03
2018-11-29T06:30:38.751Z,3.57
2018-11-29T06:33:06.860Z,2.83
2018-11-29T06:35:35.156Z,3.03
2018-11-29T06:38:03.333Z,2.23
2018-11-29T06:40:31.440Z,4.30
2018-11-29T06:42:59.592Z,1.77
2018-11-29T06:45:27.758Z,3.80
2018-11-29T06:47:55.890Z,2.03
2018-11-29T06:50:24.167Z,5.23
2018-11-29T06:52:52.213Z,2.27
2018-11-29T06:55:20.863Z,2.93
2018-11-29T06:57:49.101Z,3.00
2018-11-29T07:00:22.194Z,2.87
2018-11-29T07:02:50.268Z,2.40
2018-11-29T07:05:18.361Z,2.07
2018-11-29T07:07:46.487Z,4.07
2018-11-29T07:10:16.045Z,2.63
2018-11-29T07:12:44.213Z,1.03
2018-11-29T07:15:13.085Z,2.60
2018-11-29T07:17:41.941Z,2.83
2018-11-29T07:20:12.712Z,3.57
2018-11-29T07:22:40.931Z,3.53
2018-11-29T07:25:09.343Z,3.17
2018-11-29T07:27:37.841Z,3.23
2018-11-29T07:30:08.155Z,5.03
2018-11-29T07:32:36.290Z,3.03
2018-11-29T07:35:04.738Z,3.57
2018-11-29T07:37:33.016Z,4.27
2018-11-29T07:40:01.116Z,1.70
2018-11-29T07:42:29.585Z,5.03
2018-11-29T07:44:58.112Z,2.47
2018-11-29T07:47:26.512Z,2.97
2018-11-29T07:49:54.748Z,5.60
2018-11-29T07:52:23.085Z,5.40
2018-11-29T07:54:51.569Z,5.40
2018-11-29T07:57:20.045Z,2.83
2018-11-29T07:59:48.246Z,3.47
2018-11-29T08:02:16.461Z,3.27
2018-11-29T08:04:44.672Z,1.53
2018-11-29T08:07:12.891Z,2.77
2018-11-29T08:09:41.121Z,4.47
2018-11-29T08:12:09.785Z,3.40
2018-11-29T08:14:40.571Z,1.90
2018-11-29T08:17:08.798Z,5.47
2018-11-29T08:19:37.022Z,3.07
2018-11-29T08:22:05.257Z,3.83
2018-11-29T08:24:33.599Z,2.97
2018-11-29T08:27:02.678Z,2.23
2018-11-29T08:29:35.111Z,3.57
2018-11-29T08:32:00.149Z,4.67
2018-11-29T08:34:28.350Z,2.43
2018-11-29T08:36:56.594Z,4.50
2018-11-29T08:39:24.868Z,5.73
2018-11-29T08:41:53.066Z,5.90
2018-11-29T08:44:21.317Z,3.23
2018-11-29T08:46:49.551Z,6.73
2018-11-29T08:49:17.824Z,4.73
2018-11-29T08:51:46.033Z,2.40
2018-11-29T08:54:14.254Z,3.60
2018-11-29T08:56:42.525Z,2.60
2018-11-29T08:59:10.755Z,2.60
2018-11-29T09:01:39.035Z,4.00
2018-11-29T09:04:07.169Z,3.03
2018-11-29T09:06:35.349Z,5.87
2018-11-29T09:09:03.899Z,2.43
2018-11-29T09:11:31.949Z,3.13
2018-11-29T09:14:00.032Z,3.53
2018-11-29T09:16:28.139Z,5.53
2018-11-29T09:18:56.231Z,2.20
2018-11-29T09:21:24.355Z,4.07
2018-11-29T09:23:52.523Z,3.40
2018-11-29T09:26:20.607Z,4.43
2018-11-29T09:28:49.776Z,7.80
2018-11-29T09:31:17.844Z,3.90
2018-11-29T09:33:49.605Z,7.13
2018-11-29T09:36:17.996Z,9.00
2018-11-29T09:38:46.446Z,6.70
2018-11-29T09:41:15.058Z,3.77
2018-11-29T09:43:43.584Z,4.53
2018-11-29T09:46:11.903Z,6.50
2018-11-29T09:48:40.602Z,5.70
2018-11-29T09:51:09.104Z,5.77
2018-11-29T09:53:37.536Z,4.80
2018-11-29T09:56:06.049Z,6.83
2018-11-29T09:58:34.322Z,7.03
2018-11-29T10:01:04.156Z,4.87
2018-11-29T10:03:32.590Z,4.10
2018-11-29T10:06:00.909Z,4.33
2018-11-29T10:08:29.634Z,4.60
2018-11-29T10:10:58.115Z,6.60
2018-11-29T10:13:26.644Z,5.77
2018-11-29T10:15:55.481Z,5.27
2018-11-29T10:18:24.115Z,5.47
2018-11-29T10:20:52.976Z,5.37
2018-11-29T10:23:21.690Z,3.03
2018-11-29T10:25:50.622Z,3.80
2018-11-29T10:28:19.405Z,5.63
2018-11-29T10:30:52.022Z,8.33
2018-11-29T10:33:20.564Z,3.83
2018-11-29T10:35:49.144Z,4.77
2018-11-29T10:38:17.996Z,7.30
2018-11-29T10:40:46.679Z,5.97
2018-11-29T10:43:15.773Z,7.50
2018-11-29T10:45:44.659Z,7.50
2018-11-29T10:48:16.054Z,8.43
2018-11-29T10:50:45.874Z,7.37
2018-11-29T10:53:14.534Z,7.20
2018-11-29T10:55:43.525Z,11.70
2018-11-29T10:58:12.272Z,9.57
2018-11-29T11:00:46.176Z,5.50
2018-11-29T11:03:19.295Z,5.17
2018-11-29T11:05:49.377Z,4.77
2018-11-29T11:08:18.066Z,6.50
2018-11-29T11:10:47.012Z,5.43
2018-11-29T11:13:15.846Z,6.40
2018-11-29T11:15:44.774Z,5.13
2018-11-29T11:18:14.030Z,3.33
2018-11-29T11:20:42.712Z,5.17
2018-11-29T11:23:11.325Z,4.03
2018-11-29T11:25:40.176Z,3.97
2018-11-29T11:28:09.050Z,4.00
2018-11-29T11:30:41.250Z,4.17
2018-11-29T11:33:09.729Z,5.57
2018-11-29T11:35:38.122Z,5.43
2018-11-29T11:38:06.354Z,2.60
2018-11-29T11:40:34.804Z,4.00
2018-11-29T11:43:05.452Z,3.93
2018-11-29T11:45:32.269Z,2.50
2018-11-29T11:48:03.494Z,5.17
2018-11-29T11:50:31.188Z,3.77
2018-11-29T11:52:59.601Z,3.40
2018-11-29T11:58:14.250Z,6.83
2018-11-29T12:00:42.746Z,2.93
2018-11-29T12:03:15.484Z,3.83
2018-11-29T12:05:44.228Z,1.20
2018-11-29T12:08:12.906Z,6.87
2018-11-29T12:10:42.400Z,2.63
2018-11-29T12:13:11.006Z,3.87
2018-11-29T12:15:39.534Z,1.73
2018-11-29T12:18:09.944Z,4.13
2018-11-29T12:20:38.273Z,5.47
2018-11-29T12:23:07.208Z,2.80
2018-11-29T12:25:35.696Z,2.90
2018-11-29T12:28:04.124Z,2.67
2018-11-29T12:30:33.279Z,1.37
2018-11-29T12:33:02.800Z,3.23
2018-11-29T12:35:31.412Z,2.23
2018-11-29T12:38:00.024Z,1.67
2018-11-29T12:40:28.441Z,4.10
2018-11-29T12:42:56.662Z,1.40
2018-11-29T12:45:24.959Z,2.43
2018-11-29T12:47:53.154Z,2.67
2018-11-29T12:50:22.192Z,1.30
2018-11-29T12:52:50.888Z,2.23
2018-11-29T12:55:19.752Z,4.87
2018-11-29T12:57:56.493Z,1.63
2018-11-29T13:00:18.264Z,3.37
2018-11-29T13:02:50.842Z,4.23
2018-11-29T13:05:19.196Z,3.70
2018-11-29T13:07:47.632Z,3.03
2018-11-29T13:10:16.349Z,5.23
2018-11-29T13:12:45.067Z,2.63
2018-11-29T13:15:15.832Z,3.37
2018-11-29T13:17:44.062Z,5.97
2018-11-29T13:20:13.753Z,4.13
2018-11-29T13:22:42.226Z,1.97
2018-11-29T13:25:11.343Z,2.17
2018-11-29T13:27:39.714Z,1.47
2018-11-29T13:30:08.814Z,2.23
2018-11-29T13:32:37.059Z,1.87
2018-11-29T13:35:08.335Z,1.67
2018-11-29T13:37:36.581Z,1.50
2018-11-29T13:40:06.676Z,9.30
2018-11-29T13:42:35.211Z,0.97
2018-11-29T13:45:03.666Z,2.07
2018-11-29T13:47:31.866Z,2.47
2018-11-29T13:50:00.240Z,0.80
2018-11-29T13:52:28.708Z,4.70
2018-11-29T13:54:59.762Z,1.20
2018-11-29T13:57:28.147Z,2.93
2018-11-29T13:59:57.419Z,2.77
2018-11-29T14:02:25.867Z,4.43
2018-11-29T14:04:54.302Z,2.13
2018-11-29T14:07:24.930Z,1.67
2018-11-29T14:09:53.318Z,2.17
2018-11-29T14:12:21.617Z,3.87
2018-11-29T14:14:49.913Z,1.53
2018-11-29T14:17:18.406Z,1.87
2018-11-29T14:19:46.924Z,2.07
2018-11-29T14:22:15.412Z,1.40
2018-11-29T14:24:43.687Z,2.87
2018-11-29T14:27:11.959Z,1.60
2018-11-29T14:29:40.226Z,5.50
2018-11-29T14:32:08.703Z,3.50
2018-11-29T14:34:36.898Z,1.60
2018-11-29T14:37:05.695Z,3.50
2018-11-29T14:39:34.159Z,2.33
2018-11-29T14:42:02.534Z,1.60
2018-11-29T14:44:31.336Z,3.13
2018-11-29T14:46:59.644Z,1.87
2018-11-29T14:49:27.875Z,1.37
2018-11-29T14:51:56.124Z,3.83
2018-11-29T14:54:24.324Z,4.10
2018-11-29T14:56:52.561Z,0.77
2018-11-29T14:59:20.808Z,1.00
2018-11-29T15:01:49.067Z,2.40
2018-11-29T15:04:17.400Z,4.57
2018-11-29T15:06:45.749Z,1.77
2018-11-29T15:09:14.184Z,2.43
2018-11-29T15:11:43.054Z,1.50
2018-11-29T15:14:11.542Z,1.30
2018-11-29T15:16:40.208Z,2.50
2018-11-29T15:19:08.680Z,4.87
2018-11-29T15:21:37.574Z,3.17
2018-11-29T15:24:06.113Z,2.03
2018-11-29T15:26:34.468Z,3.03
2018-11-29T15:29:02.982Z,2.70
2018-11-29T15:31:31.400Z,2.43
2018-11-29T15:34:00.220Z,5.67
2018-11-29T15:36:29.275Z,4.20
2018-11-29T15:38:58.347Z,2.13
2018-11-29T15:41:27.075Z,1.80
2018-11-29T15:43:55.761Z,2.33
2018-11-29T15:46:24.674Z,2.87
2018-11-29T15:48:53.526Z,2.17
2018-11-29T15:51:21.917Z,2.37
2018-11-29T15:53:50.336Z,6.00
2018-11-29T15:56:19.604Z,3.73
2018-11-29T15:58:48.275Z,4.93
2018-11-29T16:01:16.917Z,3.27
2018-11-29T16:03:45.820Z,6.00
2018-11-29T16:06:14.290Z,2.00
2018-11-29T16:08:42.726Z,2.53
2018-11-29T16:11:11.316Z,3.13
2018-11-29T16:13:39.568Z,5.00
2018-11-29T16:16:07.977Z,1.87
2018-11-29T16:18:36.564Z,2.90
2018-11-29T16:21:05.066Z,4.63
2018-11-29T16:23:34.088Z,2.70
2018-11-29T16:26:02.857Z,3.97
2018-11-29T16:28:31.701Z,1.77
2018-11-29T16:33:45.200Z,1.63
2018-11-29T16:36:14.453Z,2.47
2018-11-29T16:38:43.915Z,4.63
2018-11-29T16:41:12.242Z,2.80
2018-11-29T16:43:40.536Z,2.50
2018-11-29T16:46:08.786Z,2.97
2018-11-29T16:48:37.011Z,5.53
2018-11-29T16:51:05.602Z,3.03
2018-11-29T16:53:34.024Z,2.90
2018-11-29T16:56:02.398Z,3.20
2018-11-29T16:58:30.880Z,2.73
2018-11-29T17:00:59.538Z,5.70
2018-11-29T17:03:27.951Z,3.03
2018-11-29T17:05:56.559Z,2.90
2018-11-29T17:08:26.287Z,3.43
2018-11-29T17:10:54.682Z,2.30
2018-11-29T17:13:24.470Z,3.03
2018-11-29T17:15:52.915Z,3.27
2018-11-29T17:18:21.581Z,4.73
2018-11-29T17:20:50.082Z,3.20
2018-11-29T17:23:18.529Z,3.83
2018-11-29T17:25:47.008Z,4.17
2018-11-29T17:28:16.762Z,5.87
2018-11-29T17:30:45.366Z,5.60
2018-11-29T17:33:13.682Z,3.50
2018-11-29T17:35:42.092Z,3.70
2018-11-29T17:38:10.352Z,6.60
2018-11-29T17:40:38.764Z,4.03
2018-11-29T17:43:07.197Z,4.17
2018-11-29T18:01:46.284Z,3.20
2018-11-29T18:04:14.212Z,3.47
2018-11-29T18:06:42.669Z,4.00
2018-11-29T18:09:11.367Z,4.25
2018-11-29T18:11:39.669Z,3.77
2018-11-29T18:14:08.178Z,6.03
2018-11-29T18:16:36.430Z,2.50
2018-11-29T18:19:04.866Z,2.53
2018-11-29T18:21:33.355Z,5.00
2018-11-29T18:24:01.321Z,5.33
2018-11-29T18:26:29.594Z,4.23
2018-11-29T18:28:57.566Z,1.63
2018-11-29T18:31:25.841Z,3.20
2018-11-29T18:33:53.943Z,5.93
2018-11-29T18:36:23.562Z,4.80
2018-11-29T18:38:50.465Z,7.90
2018-11-29T18:41:18.456Z,3.33
2018-11-29T18:43:46.470Z,7.83
2018-11-29T18:46:17.159Z,5.90
2018-11-29T18:48:42.723Z,3.13
2018-11-29T18:51:10.820Z,4.37
2018-11-29T18:53:38.762Z,4.83
2018-11-29T18:56:06.986Z,6.70
2018-11-29T18:58:34.991Z,7.30
2018-11-29T19:01:03.078Z,8.43
2018-11-29T19:03:31.365Z,4.73
2018-11-29T19:05:59.650Z,4.77
2018-11-29T19:08:27.593Z,4.40
2018-11-29T19:10:55.974Z,2.87
2018-11-29T19:13:24.048Z,3.97
2018-11-29T19:15:52.123Z,6.47
2018-11-29T19:18:20.004Z,5.67
2018-11-29T19:20:48.276Z,7.83
2018-11-29T19:23:16.528Z,3.13
2018-11-29T19:25:44.601Z,3.97
2018-11-29T19:28:12.894Z,4.12
2018-11-29T19:30:41.142Z,3.80
2018-11-29T19:33:17.292Z,3.80
2018-11-29T19:35:41.221Z,5.17
2018-11-29T19:38:09.270Z,5.05
2018-11-29T19:40:37.305Z,3.67
2018-11-29T19:43:06.007Z,8.30
2018-11-29T19:45:33.912Z,3.97
2018-11-29T19:48:01.970Z,7.67
2018-11-29T19:50:30.011Z,3.60
2018-11-29T19:52:58.721Z,4.17
2018-11-29T19:55:27.478Z,8.23
2018-11-29T19:57:55.715Z,4.90
2018-11-29T20:00:23.609Z,6.87
2018-11-29T20:02:52.481Z,8.37
2018-11-29T20:05:20.534Z,4.67
2018-11-29T20:07:48.788Z,4.07
2018-11-29T20:10:17.377Z,6.27
2018-11-29T20:12:46.200Z,2.70
2018-11-29T20:15:17.609Z,4.20
2018-11-29T20:17:45.811Z,4.70
2018-11-29T20:20:13.907Z,4.17
2018-11-29T20:22:41.977Z,5.03
2018-11-29T20:25:10.589Z,4.37
2018-11-29T20:27:38.889Z,6.80
2018-11-29T20:30:09.169Z,6.70
2018-11-29T20:32:38.653Z,5.77
2018-11-29T20:35:07.257Z,4.40
2018-11-29T20:37:35.323Z,9.93
2018-11-29T20:40:03.601Z,7.50
2018-11-29T20:42:31.864Z,5.60
2018-11-29T20:44:59.800Z,5.27
2018-11-29T20:47:28.185Z,4.53
2018-11-29T20:49:56.274Z,6.27
2018-11-29T20:52:24.365Z,5.53
2018-11-29T20:54:52.622Z,4.07
2018-11-29T20:57:20.957Z,6.40
2018-11-29T20:59:48.992Z,6.40
2018-11-29T21:02:17.090Z,5.17
2018-11-29T21:04:45.329Z,4.47
2018-11-29T21:07:13.440Z,6.80
2018-11-29T21:09:41.334Z,4.87
2018-11-29T21:12:09.752Z,6.90
2018-11-29T21:14:37.815Z,4.97
2018-11-29T21:17:06.094Z,10.33
2018-11-29T21:19:34.186Z,9.17
2018-11-29T21:22:02.420Z,9.73
2018-11-29T21:24:30.480Z,7.00
2018-11-29T21:26:58.431Z,3.83
2018-11-29T21:29:26.336Z,5.73
2018-11-29T21:31:54.547Z,4.77
2018-11-29T21:34:23.679Z,6.00
2018-11-29T21:36:51.053Z,8.20
2018-11-29T21:39:19.139Z,6.33
2018-11-29T21:41:47.174Z,7.20
2018-11-29T21:44:15.259Z,6.57
2018-11-29T21:46:43.348Z,4.77
2018-11-29T21:49:11.384Z,6.17
2018-11-29T21:51:39.669Z,4.67
2018-11-29T21:54:07.737Z,7.50
2018-11-29T21:56:35.826Z,8.03
2018-11-29T21:59:03.907Z,7.77
2018-11-29T22:01:32.988Z,7.30
2018-11-29T22:04:00.884Z,5.20
2018-11-29T22:06:28.941Z,4.93
2018-11-29T22:08:57.586Z,5.67
2018-11-29T22:11:25.692Z,10.20
2018-11-29T22:13:53.590Z,7.83
2018-11-29T22:16:21.659Z,7.03
2018-11-29T22:18:49.511Z,8.73
2018-11-29T22:21:17.969Z,11.23
2018-11-29T22:23:46.217Z,7.53
2018-11-29T22:26:14.984Z,4.43
2018-11-29T22:28:42.969Z,7.23
2018-11-29T22:31:11.090Z,9.43
2018-11-29T22:33:38.970Z,9.03
2018-11-29T22:36:06.865Z,9.30
2018-11-29T22:38:34.724Z,4.77
2018-11-29T22:41:03.141Z,10.07
2018-11-29T22:43:31.254Z,9.13
2018-11-29T22:45:59.067Z,8.73
2018-11-29T22:48:27.133Z,8.57
2018-11-29T22:50:55.214Z,7.03
2018-11-29T22:53:23.308Z,10.40
2018-11-29T22:55:51.359Z,6.60
2018-11-29T22:58:19.441Z,10.33
2018-11-29T23:00:54.366Z,12.20
2018-11-29T23:03:22.370Z,6.27
2018-11-29T23:05:50.281Z,12.03
2018-11-29T23:08:18.163Z,11.13
2018-11-29T23:10:46.309Z,5.93
2018-11-29T23:13:14.434Z,11.07
2018-11-29T23:15:42.416Z,6.30
2018-11-29T23:18:10.291Z,6.17
2018-11-29T23:20:38.433Z,14.50
2018-11-29T23:23:06.707Z,8.77
2018-11-29T23:25:34.796Z,6.33
2018-11-29T23:28:03.291Z,6.37
2018-11-29T23:30:31.246Z,5.50
2018-11-29T23:32:59.203Z,6.70
2018-11-29T23:35:27.188Z,9.73
2018-11-29T23:37:55.334Z,11.77
2018-11-29T23:40:24.610Z,11.27
2018-11-29T23:42:52.679Z,7.83
2018-11-29T23:45:20.751Z,9.50
2018-11-29T23:47:48.650Z,11.40
2018-11-29T23:50:17.304Z,8.73
2018-11-29T23:52:45.623Z,12.00
2018-11-29T23:55:14.469Z,9.07
2018-11-29T23:57:42.377Z,5.43
